Terminal Aerodrome Forecast
Issued by NWS

Home | Current Version | Previous Version | Text Only | Print | Product List | Glossary On
Versions: 1 2 3 4 5 6 7 8 9 10 11 12 13 14 15 16 17 18 19 20 21 22 23 24 25 26 27 28 29 30 31 32
000
FTUS46 KSGX 032321
TAFSAN
TAF
KSAN 032321Z 0400/0506 30012KT P6SM FEW015 SCT250
     FM040200 VRB04KT P6SM SCT013
      TEMPO 0402/0404 BKN012
     FM040400 VRB04KT P6SM OVC012
     FM041900 29009KT P6SM SCT015
     FM050300 VRB04KT P6SM OVC013=

USA.gov is the U.S. government's official web portal to all federal, state and local government web resources and services.